sensor_id;sensor_type;location;lat;lon;timestamp;temperature;humidity
48416;DHT22;34227;51.840;4.146;2023-06-24T00:01:35;21.10;65.90
48416;DHT22;34227;51.840;4.146;2023-06-24T00:04:02;21.10;65.80
48416;DHT22;34227;51.840;4.146;2023-06-24T00:06:27;21.00;66.10
48416;DHT22;34227;51.840;4.146;2023-06-24T00:08:53;21.00;66.20
48416;DHT22;34227;51.840;4.146;2023-06-24T00:11:26;21.00;66.40
48416;DHT22;34227;51.840;4.146;2023-06-24T00:13:51;21.00;66.40
48416;DHT22;34227;51.840;4.146;2023-06-24T00:16:17;20.90;66.50
48416;DHT22;34227;51.840;4.146;2023-06-24T00:18:42;20.90;66.60
48416;DHT22;34227;51.840;4.146;2023-06-24T00:21:08;20.90;66.50
48416;DHT22;34227;51.840;4.146;2023-06-24T00:23:33;20.90;66.90
48416;DHT22;34227;51.840;4.146;2023-06-24T00:25:59;20.90;66.80
48416;DHT22;34227;51.840;4.146;2023-06-24T00:28:25;20.80;67.00
48416;DHT22;34227;51.840;4.146;2023-06-24T00:30:51;20.80;67.20
48416;DHT22;34227;51.840;4.146;2023-06-24T00:33:16;20.80;67.30
48416;DHT22;34227;51.840;4.146;2023-06-24T00:35:44;20.80;67.40
48416;DHT22;34227;51.840;4.146;2023-06-24T00:38:10;20.80;67.80
48416;DHT22;34227;51.840;4.146;2023-06-24T00:40:36;20.70;67.90
48416;DHT22;34227;51.840;4.146;2023-06-24T00:43:05;20.70;67.90
48416;DHT22;34227;51.840;4.146;2023-06-24T00:45:31;20.70;68.10
48416;DHT22;34227;51.840;4.146;2023-06-24T00:47:57;20.70;68.50
48416;DHT22;34227;51.840;4.146;2023-06-24T00:50:23;20.60;68.60
48416;DHT22;34227;51.840;4.146;2023-06-24T00:52:49;20.60;68.50
48416;DHT22;34227;51.840;4.146;2023-06-24T00:55:15;20.60;68.80
48416;DHT22;34227;51.840;4.146;2023-06-24T00:57:41;20.60;69.10
48416;DHT22;34227;51.840;4.146;2023-06-24T01:00:08;20.60;69.20
48416;DHT22;34227;51.840;4.146;2023-06-24T01:02:40;20.50;69.30
48416;DHT22;34227;51.840;4.146;2023-06-24T01:05:10;20.50;69.30
48416;DHT22;34227;51.840;4.146;2023-06-24T01:07:40;20.50;69.50
48416;DHT22;34227;51.840;4.146;2023-06-24T01:10:06;20.50;69.70
48416;DHT22;34227;51.840;4.146;2023-06-24T01:12:36;20.50;69.90
48416;DHT22;34227;51.840;4.146;2023-06-24T01:15:09;20.40;69.90
48416;DHT22;34227;51.840;4.146;2023-06-24T01:20:20;20.40;70.90
48416;DHT22;34227;51.840;4.146;2023-06-24T01:25:36;20.40;70.60
48416;DHT22;34227;51.840;4.146;2023-06-24T01:33:25;20.30;70.80
48416;DHT22;34227;51.840;4.146;2023-06-24T01:35:52;20.30;70.90
48416;DHT22;34227;51.840;4.146;2023-06-24T01:38:22;20.30;71.10
48416;DHT22;34227;51.840;4.146;2023-06-24T01:40:48;20.20;71.10
48416;DHT22;34227;51.840;4.146;2023-06-24T01:43:15;20.20;71.30
48416;DHT22;34227;51.840;4.146;2023-06-24T01:45:45;20.20;71.10
48416;DHT22;34227;51.840;4.146;2023-06-24T01:48:30;20.20;71.30
48416;DHT22;34227;51.840;4.146;2023-06-24T01:50:59;20.10;71.30
48416;DHT22;34227;51.840;4.146;2023-06-24T01:53:26;20.10;71.30
48416;DHT22;34227;51.840;4.146;2023-06-24T01:55:53;20.10;71.40
48416;DHT22;34227;51.840;4.146;2023-06-24T01:58:19;20.10;71.70
48416;DHT22;34227;51.840;4.146;2023-06-24T02:00:47;20.10;71.50
48416;DHT22;34227;51.840;4.146;2023-06-24T02:03:14;20.00;71.50
48416;DHT22;34227;51.840;4.146;2023-06-24T02:05:40;20.00;71.60
48416;DHT22;34227;51.840;4.146;2023-06-24T02:08:09;20.00;71.60
48416;DHT22;34227;51.840;4.146;2023-06-24T02:10:36;20.00;71.80
48416;DHT22;34227;51.840;4.146;2023-06-24T02:13:03;20.00;71.80
48416;DHT22;34227;51.840;4.146;2023-06-24T02:15:29;19.90;71.50
48416;DHT22;34227;51.840;4.146;2023-06-24T02:17:55;19.90;71.90
48416;DHT22;34227;51.840;4.146;2023-06-24T02:20:21;19.90;72.00
48416;DHT22;34227;51.840;4.146;2023-06-24T02:22:52;19.90;71.60
48416;DHT22;34227;51.840;4.146;2023-06-24T02:25:18;19.80;71.70
48416;DHT22;34227;51.840;4.146;2023-06-24T02:27:44;19.80;71.70
48416;DHT22;34227;51.840;4.146;2023-06-24T02:30:10;19.80;71.80
48416;DHT22;34227;51.840;4.146;2023-06-24T02:32:43;19.70;71.90
48416;DHT22;34227;51.840;4.146;2023-06-24T02:35:09;19.70;71.70
48416;DHT22;34227;51.840;4.146;2023-06-24T02:37:34;19.70;72.00
48416;DHT22;34227;51.840;4.146;2023-06-24T02:40:00;19.60;71.80
48416;DHT22;34227;51.840;4.146;2023-06-24T02:42:26;19.60;71.80
48416;DHT22;34227;51.840;4.146;2023-06-24T02:44:51;19.60;71.90
48416;DHT22;34227;51.840;4.146;2023-06-24T02:47:18;19.60;71.90
48416;DHT22;34227;51.840;4.146;2023-06-24T02:49:44;19.60;72.10
48416;DHT22;34227;51.840;4.146;2023-06-24T02:52:15;19.60;72.30
48416;DHT22;34227;51.840;4.146;2023-06-24T02:54:41;19.50;72.10
48416;DHT22;34227;51.840;4.146;2023-06-24T02:57:06;19.50;72.20
48416;DHT22;34227;51.840;4.146;2023-06-24T02:59:36;19.50;72.20
48416;DHT22;34227;51.840;4.146;2023-06-24T03:02:02;19.40;72.20
48416;DHT22;34227;51.840;4.146;2023-06-24T03:04:28;19.40;72.30
48416;DHT22;34227;51.840;4.146;2023-06-24T03:06:54;19.30;72.30
48416;DHT22;34227;51.840;4.146;2023-06-24T03:09:20;19.40;72.30
48416;DHT22;34227;51.840;4.146;2023-06-24T03:11:45;19.30;72.30
48416;DHT22;34227;51.840;4.146;2023-06-24T03:14:11;19.30;72.50
48416;DHT22;34227;51.840;4.146;2023-06-24T03:16:40;19.30;72.60
48416;DHT22;34227;51.840;4.146;2023-06-24T03:19:06;19.20;72.80
48416;DHT22;34227;51.840;4.146;2023-06-24T03:21:33;19.20;72.50
48416;DHT22;34227;51.840;4.146;2023-06-24T03:23:59;19.20;72.80
48416;DHT22;34227;51.840;4.146;2023-06-24T03:26:34;19.20;72.90
48416;DHT22;34227;51.840;4.146;2023-06-24T03:29:00;19.20;73.00
48416;DHT22;34227;51.840;4.146;2023-06-24T03:31:26;19.10;72.90
48416;DHT22;34227;51.840;4.146;2023-06-24T03:33:52;19.10;73.90
48416;DHT22;34227;51.840;4.146;2023-06-24T03:36:17;19.10;73.00
48416;DHT22;34227;51.840;4.146;2023-06-24T03:38:43;19.10;73.10
48416;DHT22;34227;51.840;4.146;2023-06-24T03:41:08;19.10;73.00
48416;DHT22;34227;51.840;4.146;2023-06-24T03:43:34;19.00;73.20
48416;DHT22;34227;51.840;4.146;2023-06-24T03:45:59;19.00;73.20
48416;DHT22;34227;51.840;4.146;2023-06-24T03:48:25;19.00;73.20
48416;DHT22;34227;51.840;4.146;2023-06-24T03:50:51;19.00;73.50
48416;DHT22;34227;51.840;4.146;2023-06-24T03:53:16;19.00;73.40
48416;DHT22;34227;51.840;4.146;2023-06-24T03:55:42;19.00;73.30
48416;DHT22;34227;51.840;4.146;2023-06-24T03:58:07;19.00;73.30
48416;DHT22;34227;51.840;4.146;2023-06-24T04:00:33;18.90;73.40
48416;DHT22;34227;51.840;4.146;2023-06-24T04:02:59;18.90;73.60
48416;DHT22;34227;51.840;4.146;2023-06-24T04:05:26;18.90;74.10
48416;DHT22;34227;51.840;4.146;2023-06-24T04:07:52;18.90;73.50
48416;DHT22;34227;51.840;4.146;2023-06-24T04:10:18;18.90;73.50
48416;DHT22;34227;51.840;4.146;2023-06-24T04:12:44;18.90;73.50
48416;DHT22;34227;51.840;4.146;2023-06-24T04:15:10;18.90;73.60
48416;DHT22;34227;51.840;4.146;2023-06-24T04:17:35;18.90;73.70
48416;DHT22;34227;51.840;4.146;2023-06-24T04:20:01;18.90;73.70
48416;DHT22;34227;51.840;4.146;2023-06-24T04:22:29;18.90;73.90
48416;DHT22;34227;51.840;4.146;2023-06-24T04:24:55;18.90;73.80
48416;DHT22;34227;51.840;4.146;2023-06-24T04:27:20;18.90;73.70
48416;DHT22;34227;51.840;4.146;2023-06-24T04:29:46;18.90;73.80
48416;DHT22;34227;51.840;4.146;2023-06-24T04:32:11;18.90;73.90
48416;DHT22;34227;51.840;4.146;2023-06-24T04:34:37;18.90;74.10
48416;DHT22;34227;51.840;4.146;2023-06-24T04:37:03;19.00;74.10
48416;DHT22;34227;51.840;4.146;2023-06-24T04:39:28;19.10;74.50
48416;DHT22;34227;51.840;4.146;2023-06-24T04:41:54;19.10;74.50
48416;DHT22;34227;51.840;4.146;2023-06-24T04:44:19;19.20;74.50
48416;DHT22;34227;51.840;4.146;2023-06-24T04:46:45;19.30;74.00
48416;DHT22;34227;51.840;4.146;2023-06-24T04:49:11;19.40;74.00
48416;DHT22;34227;51.840;4.146;2023-06-24T04:51:36;19.40;73.60
48416;DHT22;34227;51.840;4.146;2023-06-24T04:54:02;19.50;73.80
48416;DHT22;34227;51.840;4.146;2023-06-24T04:56:29;19.50;74.00
48416;DHT22;34227;51.840;4.146;2023-06-24T04:58:54;19.50;73.90
48416;DHT22;34227;51.840;4.146;2023-06-24T05:01:20;19.50;73.60
48416;DHT22;34227;51.840;4.146;2023-06-24T05:03:46;19.50;74.00
48416;DHT22;34227;51.840;4.146;2023-06-24T05:06:12;19.50;73.40
48416;DHT22;34227;51.840;4.146;2023-06-24T05:08:37;19.60;73.50
48416;DHT22;34227;51.840;4.146;2023-06-24T05:11:03;19.70;73.30
48416;DHT22;34227;51.840;4.146;2023-06-24T05:13:29;19.80;73.10
48416;DHT22;34227;51.840;4.146;2023-06-24T05:15:55;19.80;73.70
48416;DHT22;34227;51.840;4.146;2023-06-24T05:18:23;20.00;73.00
48416;DHT22;34227;51.840;4.146;2023-06-24T05:20:48;20.10;72.70
48416;DHT22;34227;51.840;4.146;2023-06-24T05:23:14;20.30;72.00
48416;DHT22;34227;51.840;4.146;2023-06-24T05:25:45;20.40;72.70
48416;DHT22;34227;51.840;4.146;2023-06-24T05:28:11;20.50;72.00
48416;DHT22;34227;51.840;4.146;2023-06-24T05:30:37;20.70;72.40
48416;DHT22;34227;51.840;4.146;2023-06-24T05:33:03;20.90;72.60
48416;DHT22;34227;51.840;4.146;2023-06-24T05:35:29;21.10;71.90
48416;DHT22;34227;51.840;4.146;2023-06-24T05:37:54;21.30;71.50
48416;DHT22;34227;51.840;4.146;2023-06-24T05:40:20;21.50;71.80
48416;DHT22;34227;51.840;4.146;2023-06-24T05:42:45;21.70;71.30
48416;DHT22;34227;51.840;4.146;2023-06-24T05:45:11;21.90;71.40
48416;DHT22;34227;51.840;4.146;2023-06-24T05:47:40;22.20;70.60
48416;DHT22;34227;51.840;4.146;2023-06-24T05:50:06;22.40;70.30
48416;DHT22;34227;51.840;4.146;2023-06-24T05:52:32;22.60;70.60
48416;DHT22;34227;51.840;4.146;2023-06-24T05:55:01;22.90;69.80
48416;DHT22;34227;51.840;4.146;2023-06-24T05:57:29;23.10;69.20
48416;DHT22;34227;51.840;4.146;2023-06-24T05:59:55;23.30;68.90
48416;DHT22;34227;51.840;4.146;2023-06-24T06:02:23;23.60;68.60
48416;DHT22;34227;51.840;4.146;2023-06-24T06:04:49;23.80;68.70
48416;DHT22;34227;51.840;4.146;2023-06-24T06:07:15;24.00;68.30
48416;DHT22;34227;51.840;4.146;2023-06-24T06:09:40;24.20;68.00
48416;DHT22;34227;51.840;4.146;2023-06-24T06:12:06;24.50;68.40
48416;DHT22;34227;51.840;4.146;2023-06-24T06:14:32;24.70;67.90
48416;DHT22;34227;51.840;4.146;2023-06-24T06:16:58;24.90;67.90
48416;DHT22;34227;51.840;4.146;2023-06-24T06:19:23;25.10;67.40
48416;DHT22;34227;51.840;4.146;2023-06-24T06:21:49;25.30;67.30
48416;DHT22;34227;51.840;4.146;2023-06-24T06:26:44;25.70;66.40
48416;DHT22;34227;51.840;4.146;2023-06-24T06:29:10;26.00;67.20
48416;DHT22;34227;51.840;4.146;2023-06-24T06:31:36;26.10;67.20
48416;DHT22;34227;51.840;4.146;2023-06-24T06:34:01;26.30;67.20
48416;DHT22;34227;51.840;4.146;2023-06-24T06:36:27;26.50;67.20
48416;DHT22;34227;51.840;4.146;2023-06-24T06:38:53;26.70;67.20
48416;DHT22;34227;51.840;4.146;2023-06-24T06:41:18;26.90;66.80
48416;DHT22;34227;51.840;4.146;2023-06-24T06:43:52;27.10;66.90
48416;DHT22;34227;51.840;4.146;2023-06-24T06:46:18;27.30;66.70
48416;DHT22;34227;51.840;4.146;2023-06-24T06:48:44;27.50;66.60
48416;DHT22;34227;51.840;4.146;2023-06-24T06:51:09;27.70;66.50
48416;DHT22;34227;51.840;4.146;2023-06-24T06:53:35;27.90;66.20
48416;DHT22;34227;51.840;4.146;2023-06-24T06:56:01;28.10;66.30
48416;DHT22;34227;51.840;4.146;2023-06-24T06:58:27;28.30;66.30
48416;DHT22;34227;51.840;4.146;2023-06-24T07:00:53;28.40;66.10
48416;DHT22;34227;51.840;4.146;2023-06-24T07:03:18;28.60;66.40
48416;DHT22;34227;51.840;4.146;2023-06-24T07:05:44;28.80;65.90
48416;DHT22;34227;51.840;4.146;2023-06-24T07:08:09;29.00;66.00
48416;DHT22;34227;51.840;4.146;2023-06-24T07:10:35;29.10;66.00
48416;DHT22;34227;51.840;4.146;2023-06-24T07:13:01;29.30;65.80
48416;DHT22;34227;51.840;4.146;2023-06-24T07:15:27;29.50;65.50
48416;DHT22;34227;51.840;4.146;2023-06-24T07:17:52;29.70;65.40
48416;DHT22;34227;51.840;4.146;2023-06-24T07:20:19;29.90;65.20
48416;DHT22;34227;51.840;4.146;2023-06-24T08:16:17;34.60;53.30
48416;DHT22;34227;51.840;4.146;2023-06-24T08:18:43;34.40;56.00
48416;DHT22;34227;51.840;4.146;2023-06-24T08:21:09;34.70;57.80
48416;DHT22;34227;51.840;4.146;2023-06-24T08:23:34;35.10;58.00
48416;DHT22;34227;51.840;4.146;2023-06-24T08:26:00;35.40;57.50
48416;DHT22;34227;51.840;4.146;2023-06-24T08:28:25;35.70;57.30
48416;DHT22;34227;51.840;4.146;2023-06-24T08:30:51;35.90;56.90
48416;DHT22;34227;51.840;4.146;2023-06-24T08:33:16;36.20;56.50
48416;DHT22;34227;51.840;4.146;2023-06-24T08:35:42;36.40;56.00
48416;DHT22;34227;51.840;4.146;2023-06-24T08:38:08;36.60;55.80
48416;DHT22;34227;51.840;4.146;2023-06-24T08:40:33;36.80;55.60
48416;DHT22;34227;51.840;4.146;2023-06-24T08:42:59;37.00;54.80
48416;DHT22;34227;51.840;4.146;2023-06-24T08:45:24;37.20;54.30
48416;DHT22;34227;51.840;4.146;2023-06-24T08:47:50;37.40;53.90
48416;DHT22;34227;51.840;4.146;2023-06-24T08:50:16;37.60;53.50
48416;DHT22;34227;51.840;4.146;2023-06-24T08:52:43;37.80;53.40
48416;DHT22;34227;51.840;4.146;2023-06-24T08:55:12;38.10;52.80
48416;DHT22;34227;51.840;4.146;2023-06-24T08:57:38;38.30;52.20
48416;DHT22;34227;51.840;4.146;2023-06-24T09:00:05;38.50;51.90
48416;DHT22;34227;51.840;4.146;2023-06-24T09:02:34;38.70;51.30
48416;DHT22;34227;51.840;4.146;2023-06-24T09:05:06;38.90;51.00
48416;DHT22;34227;51.840;4.146;2023-06-24T09:07:32;39.00;50.40
48416;DHT22;34227;51.840;4.146;2023-06-24T09:09:58;39.20;50.30
48416;DHT22;34227;51.840;4.146;2023-06-24T09:12:25;39.40;49.90
48416;DHT22;34227;51.840;4.146;2023-06-24T09:14:52;39.50;49.60
48416;DHT22;34227;51.840;4.146;2023-06-24T09:17:18;39.70;49.30
48416;DHT22;34227;51.840;4.146;2023-06-24T09:19:44;39.80;48.70
48416;DHT22;34227;51.840;4.146;2023-06-24T09:22:10;40.00;48.50
48416;DHT22;34227;51.840;4.146;2023-06-24T09:24:45;40.20;48.30
48416;DHT22;34227;51.840;4.146;2023-06-24T09:27:14;40.40;48.00
48416;DHT22;34227;51.840;4.146;2023-06-24T09:29:40;40.40;48.00
48416;DHT22;34227;51.840;4.146;2023-06-24T09:32:06;40.60;47.60
48416;DHT22;34227;51.840;4.146;2023-06-24T09:34:32;40.70;47.10
48416;DHT22;34227;51.840;4.146;2023-06-24T09:36:58;40.80;46.90
48416;DHT22;34227;51.840;4.146;2023-06-24T09:39:25;40.90;46.70
48416;DHT22;34227;51.840;4.146;2023-06-24T09:41:57;41.00;47.20
48416;DHT22;34227;51.840;4.146;2023-06-24T09:44:22;41.10;46.20
48416;DHT22;34227;51.840;4.146;2023-06-24T09:46:48;41.10;45.80
48416;DHT22;34227;51.840;4.146;2023-06-24T09:49:14;41.30;45.50
48416;DHT22;34227;51.840;4.146;2023-06-24T09:51:42;41.40;45.10
48416;DHT22;34227;51.840;4.146;2023-06-24T09:54:14;41.40;44.40
48416;DHT22;34227;51.840;4.146;2023-06-24T09:56:42;41.60;44.10
48416;DHT22;34227;51.840;4.146;2023-06-24T09:59:09;41.70;43.80
48416;DHT22;34227;51.840;4.146;2023-06-24T10:01:37;41.80;42.60
48416;DHT22;34227;51.840;4.146;2023-06-24T10:04:04;41.90;42.60
48416;DHT22;34227;51.840;4.146;2023-06-24T10:06:29;42.00;42.50
48416;DHT22;34227;51.840;4.146;2023-06-24T10:08:55;42.10;41.90
48416;DHT22;34227;51.840;4.146;2023-06-24T10:11:21;42.10;41.90
48416;DHT22;34227;51.840;4.146;2023-06-24T10:13:46;42.20;41.70
48416;DHT22;34227;51.840;4.146;2023-06-24T10:16:12;42.20;41.60
48416;DHT22;34227;51.840;4.146;2023-06-24T10:18:38;42.40;41.60
48416;DHT22;34227;51.840;4.146;2023-06-24T10:21:05;42.40;41.30
48416;DHT22;34227;51.840;4.146;2023-06-24T10:23:36;42.40;41.20
48416;DHT22;34227;51.840;4.146;2023-06-24T10:26:07;42.50;41.00
48416;DHT22;34227;51.840;4.146;2023-06-24T10:29:04;42.60;41.00
48416;DHT22;34227;51.840;4.146;2023-06-24T10:31:18;42.60;41.00
48416;DHT22;34227;51.840;4.146;2023-06-24T10:33:52;42.60;40.80
48416;DHT22;34227;51.840;4.146;2023-06-24T10:36:33;42.70;40.80
48416;DHT22;34227;51.840;4.146;2023-06-24T10:38:58;42.70;40.70
48416;DHT22;34227;51.840;4.146;2023-06-24T10:41:24;42.70;40.90
48416;DHT22;34227;51.840;4.146;2023-06-24T10:43:50;42.70;41.10
48416;DHT22;34227;51.840;4.146;2023-06-24T10:46:16;42.60;41.00
48416;DHT22;34227;51.840;4.146;2023-06-24T10:48:42;42.60;41.10
48416;DHT22;34227;51.840;4.146;2023-06-24T10:51:08;42.60;41.20
48416;DHT22;34227;51.840;4.146;2023-06-24T10:53:34;42.60;41.10
48416;DHT22;34227;51.840;4.146;2023-06-24T10:56:00;42.50;41.10
48416;DHT22;34227;51.840;4.146;2023-06-24T10:58:26;42.50;41.20
48416;DHT22;34227;51.840;4.146;2023-06-24T11:00:51;42.40;40.70
48416;DHT22;34227;51.840;4.146;2023-06-24T11:03:17;42.30;40.70
48416;DHT22;34227;51.840;4.146;2023-06-24T11:05:45;42.20;40.70
48416;DHT22;34227;51.840;4.146;2023-06-24T11:08:11;42.10;40.50
48416;DHT22;34227;51.840;4.146;2023-06-24T11:10:44;42.00;40.40
48416;DHT22;34227;51.840;4.146;2023-06-24T11:13:09;41.90;40.50
48416;DHT22;34227;51.840;4.146;2023-06-24T11:15:35;41.80;40.70
48416;DHT22;34227;51.840;4.146;2023-06-24T11:18:04;41.70;40.50
48416;DHT22;34227;51.840;4.146;2023-06-24T11:20:29;41.60;40.90
48416;DHT22;34227;51.840;4.146;2023-06-24T11:22:55;41.40;41.00
48416;DHT22;34227;51.840;4.146;2023-06-24T11:25:21;41.40;41.20
48416;DHT22;34227;51.840;4.146;2023-06-24T11:27:49;41.20;41.30
48416;DHT22;34227;51.840;4.146;2023-06-24T11:30:15;41.00;41.60
48416;DHT22;34227;51.840;4.146;2023-06-24T11:32:42;40.80;41.90
48416;DHT22;34227;51.840;4.146;2023-06-24T11:35:08;40.60;42.10
48416;DHT22;34227;51.840;4.146;2023-06-24T11:37:34;40.40;42.10
48416;DHT22;34227;51.840;4.146;2023-06-24T11:40:00;40.20;42.30
48416;DHT22;34227;51.840;4.146;2023-06-24T11:42:27;40.10;42.50
48416;DHT22;34227;51.840;4.146;2023-06-24T11:44:53;39.80;42.50
48416;DHT22;34227;51.840;4.146;2023-06-24T11:47:24;39.70;42.70
48416;DHT22;34227;51.840;4.146;2023-06-24T11:49:50;39.50;42.80
48416;DHT22;34227;51.840;4.146;2023-06-24T11:52:16;39.30;42.90
48416;DHT22;34227;51.840;4.146;2023-06-24T11:54:41;39.20;42.90
48416;DHT22;34227;51.840;4.146;2023-06-24T11:57:10;39.00;43.20
48416;DHT22;34227;51.840;4.146;2023-06-24T11:59:38;38.80;43.40
48416;DHT22;34227;51.840;4.146;2023-06-24T12:02:04;38.60;43.70
48416;DHT22;34227;51.840;4.146;2023-06-24T12:04:30;38.40;43.90
48416;DHT22;34227;51.840;4.146;2023-06-24T12:06:56;38.20;44.80
48416;DHT22;34227;51.840;4.146;2023-06-24T12:09:21;38.00;44.40
48416;DHT22;34227;51.840;4.146;2023-06-24T12:11:47;37.80;44.50
48416;DHT22;34227;51.840;4.146;2023-06-24T12:14:13;37.50;44.70
48416;DHT22;34227;51.840;4.146;2023-06-24T12:16:39;37.40;44.90
48416;DHT22;34227;51.840;4.146;2023-06-24T12:19:05;37.20;45.20
48416;DHT22;34227;51.840;4.146;2023-06-24T12:21:31;37.00;45.40
48416;DHT22;34227;51.840;4.146;2023-06-24T12:23:57;36.80;45.60
48416;DHT22;34227;51.840;4.146;2023-06-24T12:26:22;36.50;45.90
48416;DHT22;34227;51.840;4.146;2023-06-24T12:28:48;36.40;46.00
48416;DHT22;34227;51.840;4.146;2023-06-24T12:31:13;36.20;46.20
48416;DHT22;34227;51.840;4.146;2023-06-24T12:33:39;35.90;46.30
48416;DHT22;34227;51.840;4.146;2023-06-24T12:36:04;35.80;46.60
48416;DHT22;34227;51.840;4.146;2023-06-24T12:38:30;35.60;46.70
48416;DHT22;34227;51.840;4.146;2023-06-24T12:40:56;35.30;46.40
48416;DHT22;34227;51.840;4.146;2023-06-24T12:43:22;35.30;47.00
48416;DHT22;34227;51.840;4.146;2023-06-24T12:45:47;35.10;47.00
48416;DHT22;34227;51.840;4.146;2023-06-24T12:48:13;34.90;47.20
48416;DHT22;34227;51.840;4.146;2023-06-24T12:50:39;34.80;47.40
48416;DHT22;34227;51.840;4.146;2023-06-24T12:53:05;34.70;47.50
48416;DHT22;34227;51.840;4.146;2023-06-24T12:55:30;34.60;47.80
48416;DHT22;34227;51.840;4.146;2023-06-24T12:57:56;34.50;47.90
48416;DHT22;34227;51.840;4.146;2023-06-24T13:00:23;34.30;47.90
48416;DHT22;34227;51.840;4.146;2023-06-24T13:02:49;34.20;48.10
48416;DHT22;34227;51.840;4.146;2023-06-24T13:05:15;34.20;48.40
48416;DHT22;34227;51.840;4.146;2023-06-24T13:07:40;34.10;48.30
48416;DHT22;34227;51.840;4.146;2023-06-24T13:10:06;34.00;48.30
48416;DHT22;34227;51.840;4.146;2023-06-24T13:12:32;34.00;48.40
48416;DHT22;34227;51.840;4.146;2023-06-24T13:14:57;33.90;48.40
48416;DHT22;34227;51.840;4.146;2023-06-24T13:17:23;34.00;48.50
48416;DHT22;34227;51.840;4.146;2023-06-24T13:19:50;33.90;48.50
48416;DHT22;34227;51.840;4.146;2023-06-24T13:22:15;33.90;48.40
48416;DHT22;34227;51.840;4.146;2023-06-24T13:24:41;33.90;48.70
48416;DHT22;34227;51.840;4.146;2023-06-24T13:27:07;33.90;48.40
48416;DHT22;34227;51.840;4.146;2023-06-24T13:29:32;33.90;48.40
48416;DHT22;34227;51.840;4.146;2023-06-24T13:31:58;33.90;48.40
48416;DHT22;34227;51.840;4.146;2023-06-24T13:34:23;33.90;48.40
48416;DHT22;34227;51.840;4.146;2023-06-24T13:36:49;34.00;48.40
48416;DHT22;34227;51.840;4.146;2023-06-24T13:39:14;33.90;48.30
48416;DHT22;34227;51.840;4.146;2023-06-24T13:41:42;33.90;48.30
48416;DHT22;34227;51.840;4.146;2023-06-24T13:44:08;34.00;48.30
48416;DHT22;34227;51.840;4.146;2023-06-24T13:46:33;34.00;48.30
48416;DHT22;34227;51.840;4.146;2023-06-24T13:48:59;34.00;48.20
48416;DHT22;34227;51.840;4.146;2023-06-24T13:51:25;34.10;48.30
48416;DHT22;34227;51.840;4.146;2023-06-24T13:53:51;34.00;48.20
48416;DHT22;34227;51.840;4.146;2023-06-24T13:56:17;34.00;48.20
48416;DHT22;34227;51.840;4.146;2023-06-24T13:58:43;34.00;48.10
48416;DHT22;34227;51.840;4.146;2023-06-24T14:01:09;34.00;48.10
48416;DHT22;34227;51.840;4.146;2023-06-24T14:03:34;34.00;48.10
48416;DHT22;34227;51.840;4.146;2023-06-24T14:06:00;34.00;48.00
48416;DHT22;34227;51.840;4.146;2023-06-24T14:08:27;34.00;48.00
48416;DHT22;34227;51.840;4.146;2023-06-24T14:10:56;34.00;48.70
48416;DHT22;34227;51.840;4.146;2023-06-24T14:13:22;34.00;48.00
48416;DHT22;34227;51.840;4.146;2023-06-24T14:15:48;34.00;48.00
48416;DHT22;34227;51.840;4.146;2023-06-24T14:18:13;34.00;48.00
48416;DHT22;34227;51.840;4.146;2023-06-24T14:20:39;34.00;48.00
48416;DHT22;34227;51.840;4.146;2023-06-24T14:23:05;33.90;47.90
48416;DHT22;34227;51.840;4.146;2023-06-24T14:25:30;33.90;47.90
48416;DHT22;34227;51.840;4.146;2023-06-24T14:27:56;33.80;47.90
48416;DHT22;34227;51.840;4.146;2023-06-24T14:30:22;33.90;48.60
48416;DHT22;34227;51.840;4.146;2023-06-24T14:32:47;33.80;47.90
48416;DHT22;34227;51.840;4.146;2023-06-24T14:35:13;33.80;47.90
48416;DHT22;34227;51.840;4.146;2023-06-24T14:37:39;33.70;47.80
48416;DHT22;34227;51.840;4.146;2023-06-24T14:40:05;33.70;47.80
48416;DHT22;34227;51.840;4.146;2023-06-24T14:42:30;33.70;47.90
48416;DHT22;34227;51.840;4.146;2023-06-24T14:44:57;33.70;47.90
48416;DHT22;34227;51.840;4.146;2023-06-24T14:47:22;33.60;47.80
48416;DHT22;34227;51.840;4.146;2023-06-24T14:49:49;33.60;47.90
48416;DHT22;34227;51.840;4.146;2023-06-24T14:52:17;33.50;47.90
48416;DHT22;34227;51.840;4.146;2023-06-24T14:54:48;33.40;47.90
48416;DHT22;34227;51.840;4.146;2023-06-24T14:57:13;33.40;47.90
48416;DHT22;34227;51.840;4.146;2023-06-24T14:59:41;33.30;47.90
48416;DHT22;34227;51.840;4.146;2023-06-24T15:02:07;33.30;47.90
48416;DHT22;34227;51.840;4.146;2023-06-24T15:04:35;33.20;48.00
48416;DHT22;34227;51.840;4.146;2023-06-24T15:07:01;32.40;47.70
48416;DHT22;34227;51.840;4.146;2023-06-24T15:09:31;32.00;48.90
48416;DHT22;34227;51.840;4.146;2023-06-24T15:12:00;31.60;49.50
48416;DHT22;34227;51.840;4.146;2023-06-24T15:14:26;31.40;50.30
48416;DHT22;34227;51.840;4.146;2023-06-24T15:16:51;31.10;50.60
48416;DHT22;34227;51.840;4.146;2023-06-24T15:19:19;30.90;50.90
48416;DHT22;34227;51.840;4.146;2023-06-24T15:21:45;30.80;51.10
48416;DHT22;34227;51.840;4.146;2023-06-24T15:24:10;30.70;50.90
48416;DHT22;34227;51.840;4.146;2023-06-24T15:26:36;30.70;51.00
48416;DHT22;34227;51.840;4.146;2023-06-24T15:29:02;30.50;51.30
48416;DHT22;34227;51.840;4.146;2023-06-24T15:31:27;30.40;51.60
48416;DHT22;34227;51.840;4.146;2023-06-24T15:33:53;30.40;51.90
48416;DHT22;34227;51.840;4.146;2023-06-24T15:36:19;30.30;51.90
48416;DHT22;34227;51.840;4.146;2023-06-24T15:38:47;30.20;52.10
48416;DHT22;34227;51.840;4.146;2023-06-24T15:41:13;30.00;52.10
48416;DHT22;34227;51.840;4.146;2023-06-24T15:43:39;29.90;52.40
48416;DHT22;34227;51.840;4.146;2023-06-24T15:46:05;29.90;52.60
48416;DHT22;34227;51.840;4.146;2023-06-24T15:48:30;29.70;52.90
48416;DHT22;34227;51.840;4.146;2023-06-24T15:50:56;29.70;53.10
48416;DHT22;34227;51.840;4.146;2023-06-24T15:53:24;29.60;53.40
48416;DHT22;34227;51.840;4.146;2023-06-24T15:55:50;29.40;53.60
48416;DHT22;34227;51.840;4.146;2023-06-24T15:58:15;29.30;53.70
48416;DHT22;34227;51.840;4.146;2023-06-24T16:00:41;29.20;53.80
48416;DHT22;34227;51.840;4.146;2023-06-24T16:03:09;29.20;54.30
48416;DHT22;34227;51.840;4.146;2023-06-24T16:05:35;29.00;54.60
48416;DHT22;34227;51.840;4.146;2023-06-24T16:08:00;28.90;54.90
48416;DHT22;34227;51.840;4.146;2023-06-24T16:10:26;28.80;55.10
48416;DHT22;34227;51.840;4.146;2023-06-24T16:12:52;28.70;55.60
48416;DHT22;34227;51.840;4.146;2023-06-24T16:15:25;28.60;56.10
48416;DHT22;34227;51.840;4.146;2023-06-24T16:17:50;28.60;56.60
48416;DHT22;34227;51.840;4.146;2023-06-24T16:20:16;28.50;56.70
48416;DHT22;34227;51.840;4.146;2023-06-24T16:22:45;28.40;57.00
48416;DHT22;34227;51.840;4.146;2023-06-24T16:25:11;28.30;56.80
48416;DHT22;34227;51.840;4.146;2023-06-24T16:27:37;28.10;57.10
48416;DHT22;34227;51.840;4.146;2023-06-24T16:30:05;28.10;57.10
48416;DHT22;34227;51.840;4.146;2023-06-24T16:32:31;28.00;57.20